createdAt,value
2017-12-06T00:02:16.271Z,15.43
2017-12-06T00:05:21.013Z,16.97
2017-12-06T00:08:26.534Z,17.23
2017-12-06T00:11:31.490Z,15.70
2017-12-06T00:14:44.556Z,14.80
2017-12-06T00:17:49.535Z,15.00
2017-12-06T00:21:05.848Z,14.90
2017-12-06T00:24:11.508Z,15.33
2017-12-06T00:27:16.738Z,14.20
2017-12-06T00:30:22.224Z,15.67
2017-12-06T00:33:28.524Z,15.47
2017-12-06T00:36:33.544Z,14.90
2017-12-06T00:39:42.839Z,16.73
2017-12-06T00:42:53.124Z,14.90
2017-12-06T00:46:04.264Z,14.57
2017-12-06T00:49:09.268Z,14.80
2017-12-06T00:52:14.712Z,13.70
2017-12-06T00:55:20.369Z,15.50
2017-12-06T00:58:25.775Z,14.60
2017-12-06T01:01:30.727Z,15.60
2017-12-06T01:04:37.856Z,14.47
2017-12-06T01:07:49.219Z,14.93
2017-12-06T01:10:54.635Z,14.70
2017-12-06T01:14:00.435Z,14.67
2017-12-06T01:17:06.126Z,15.63
2017-12-06T01:20:11.151Z,15.77
2017-12-06T01:23:16.683Z,15.10
2017-12-06T01:26:21.792Z,15.53
2017-12-06T01:29:28.200Z,15.00
2017-12-06T01:32:37.263Z,16.30
2017-12-06T01:35:48.912Z,15.60
2017-12-06T01:38:54.818Z,15.73
2017-12-06T01:42:06.011Z,16.17
2017-12-06T01:45:11.459Z,16.73
2017-12-06T01:48:16.516Z,15.80
2017-12-06T01:51:22.303Z,16.77
2017-12-06T01:54:27.972Z,16.47
2017-12-06T01:57:33.118Z,17.70
2017-12-06T02:00:39.268Z,16.27
2017-12-06T02:03:44.010Z,18.30
2017-12-06T02:06:49.004Z,18.97
2017-12-06T02:09:54.387Z,17.90
2017-12-06T02:13:00.132Z,16.87
2017-12-06T02:16:05.827Z,19.07
2017-12-06T02:19:12.844Z,18.87
2017-12-06T02:22:17.908Z,17.83
2017-12-06T02:25:23.564Z,16.27
2017-12-06T02:28:29.055Z,19.17
2017-12-06T02:31:34.543Z,19.50
2017-12-06T02:34:48.384Z,19.37
2017-12-06T02:37:54.744Z,20.13
2017-12-06T02:41:12.117Z,20.27
2017-12-06T02:44:29.271Z,19.20
2017-12-06T02:47:35.323Z,18.90
2017-12-06T02:50:44.175Z,21.50
2017-12-06T02:53:49.703Z,20.40
2017-12-06T02:56:56.361Z,20.20
2017-12-06T03:00:02.284Z,15.73
2017-12-06T03:03:12.528Z,20.33
2017-12-06T03:06:17.436Z,21.33
2017-12-06T03:09:22.183Z,19.23
2017-12-06T03:12:30.907Z,20.37
2017-12-06T03:15:36.196Z,21.17
2017-12-06T03:18:43.935Z,19.57
2017-12-06T03:21:49.349Z,21.73
2017-12-06T03:25:01.894Z,21.67
2017-12-06T03:28:12.860Z,21.27
2017-12-06T03:31:17.895Z,19.73
2017-12-06T03:34:22.820Z,22.10
2017-12-06T03:37:37.163Z,13.90
2017-12-06T03:40:42.211Z,21.57
2017-12-06T03:43:53.644Z,20.37
2017-12-06T03:47:01.470Z,20.23
2017-12-06T03:50:06.663Z,20.40
2017-12-06T03:53:13.139Z,23.23
2017-12-06T03:56:19.049Z,19.87
2017-12-06T03:59:24.091Z,21.50
2017-12-06T04:02:29.539Z,22.00
2017-12-06T04:05:34.916Z,16.93
2017-12-06T04:08:39.865Z,21.70
2017-12-06T04:11:45.326Z,18.87
2017-12-06T04:14:50.640Z,23.40
2017-12-06T04:17:56.299Z,22.70
2017-12-06T04:21:05.080Z,21.63
2017-12-06T04:24:10.295Z,22.80
2017-12-06T04:27:15.218Z,23.00
2017-12-06T04:30:21.756Z,22.40
2017-12-06T04:33:26.941Z,23.40
2017-12-06T04:36:31.948Z,21.87
2017-12-06T04:39:37.467Z,22.87
2017-12-06T04:42:43.382Z,22.50
2017-12-06T04:45:48.750Z,22.50
2017-12-06T04:48:54.188Z,17.10
2017-12-06T04:51:59.271Z,24.87
2017-12-06T04:55:04.504Z,21.33
2017-12-06T04:58:09.975Z,22.63
2017-12-06T05:01:14.822Z,24.10
2017-12-06T05:04:25.856Z,21.60
2017-12-06T05:07:33.740Z,21.70
2017-12-06T05:10:41.164Z,23.00
2017-12-06T05:13:47.948Z,23.23
2017-12-06T05:16:54.158Z,23.83
2017-12-06T05:20:03.953Z,24.00
2017-12-06T05:23:11.462Z,22.30
2017-12-06T05:26:23.777Z,22.17
2017-12-06T05:29:29.350Z,23.87
2017-12-06T05:32:34.650Z,24.17
2017-12-06T05:35:41.010Z,22.20
2017-12-06T05:38:47.208Z,22.83
2017-12-06T05:41:55.331Z,21.20
2017-12-06T05:45:00.116Z,21.57
2017-12-06T05:48:09.504Z,21.47
2017-12-06T05:51:18.271Z,20.57
2017-12-06T05:54:25.813Z,22.60
2017-12-06T05:57:31.956Z,20.50
2017-12-06T06:00:38.676Z,20.20
2017-12-06T06:03:51.924Z,22.20
2017-12-06T06:06:58.767Z,21.27
2017-12-06T06:10:04.008Z,21.07
2017-12-06T06:13:09.219Z,22.80
2017-12-06T06:16:15.224Z,22.00
2017-12-06T06:19:20.058Z,21.10
2017-12-06T06:22:26.528Z,21.20
2017-12-06T06:25:32.096Z,21.47
2017-12-06T06:28:37.500Z,18.40
2017-12-06T06:31:43.506Z,20.90
2017-12-06T06:34:48.939Z,20.70
2017-12-06T06:37:54.258Z,20.47
2017-12-06T06:40:59.628Z,19.73
2017-12-06T06:44:05.097Z,21.10
2017-12-06T06:47:10.212Z,21.10
2017-12-06T06:50:17.014Z,19.87
2017-12-06T06:53:22.401Z,21.20
2017-12-06T06:56:27.848Z,22.70
2017-12-06T06:59:34.064Z,22.03
2017-12-06T07:02:39.683Z,21.93
2017-12-06T07:05:45.272Z,21.47
2017-12-06T07:08:50.926Z,20.73
2017-12-06T07:11:56.880Z,20.90
2017-12-06T07:15:02.388Z,19.17
2017-12-06T07:18:09.124Z,19.53
2017-12-06T07:21:14.128Z,19.97
2017-12-06T07:24:19.798Z,18.97
2017-12-06T07:27:32.287Z,20.13
2017-12-06T07:30:37.368Z,19.17
2017-12-06T07:33:43.817Z,19.93
2017-12-06T07:36:51.363Z,18.80
2017-12-06T07:39:56.520Z,20.73
2017-12-06T07:43:13.304Z,19.17
2017-12-06T07:46:30.734Z,19.37
2017-12-06T07:49:36.000Z,18.80
2017-12-06T07:52:43.375Z,21.07
2017-12-06T07:55:51.896Z,19.50
2017-12-06T07:58:58.484Z,20.20
2017-12-06T08:02:03.721Z,19.77
2017-12-06T08:05:09.004Z,20.53
2017-12-06T08:08:14.348Z,20.50
2017-12-06T08:11:19.304Z,19.87
2017-12-06T08:14:24.973Z,19.03
2017-12-06T08:17:30.647Z,20.10
2017-12-06T08:20:35.617Z,18.47
2017-12-06T08:23:42.211Z,18.07
2017-12-06T08:26:47.628Z,19.27
2017-12-06T08:29:52.736Z,18.57
2017-12-06T08:32:58.706Z,19.43
2017-12-06T08:36:04.272Z,18.87
2017-12-06T08:39:09.808Z,18.70
2017-12-06T08:42:15.901Z,19.10
2017-12-06T08:45:21.176Z,18.40
2017-12-06T08:48:26.163Z,19.03
2017-12-06T08:51:31.198Z,17.47
2017-12-06T08:54:37.000Z,17.30
2017-12-06T08:57:42.688Z,18.83
2017-12-06T09:00:49.300Z,19.53
2017-12-06T09:04:00.704Z,20.70
2017-12-06T09:07:06.267Z,19.13
2017-12-06T09:10:11.296Z,20.97
2017-12-06T09:13:16.567Z,19.00
2017-12-06T09:16:21.782Z,19.23
2017-12-06T09:19:26.896Z,19.50
2017-12-06T09:22:32.042Z,19.80
2017-12-06T09:25:37.688Z,18.00
2017-12-06T09:28:42.476Z,20.63
2017-12-06T09:31:48.139Z,18.93
2017-12-06T09:34:52.985Z,20.10
2017-12-06T09:37:58.400Z,19.40
2017-12-06T09:41:03.816Z,18.90
2017-12-06T09:44:09.080Z,18.80
2017-12-06T09:47:13.936Z,20.67
2017-12-06T09:50:18.741Z,19.13
2017-12-06T09:53:23.888Z,19.27
2017-12-06T09:56:28.616Z,17.27
2017-12-06T09:59:33.484Z,18.13
2017-12-06T10:02:38.326Z,18.63
2017-12-06T10:05:43.104Z,19.50
2017-12-06T10:08:48.668Z,16.60
2017-12-06T10:11:54.429Z,17.77
2017-12-06T10:14:59.691Z,18.97
2017-12-06T10:18:05.486Z,17.13
2017-12-06T10:21:10.805Z,17.17
2017-12-06T10:24:16.294Z,17.90
2017-12-06T10:27:22.271Z,17.30
2017-12-06T10:30:27.355Z,18.00
2017-12-06T10:33:32.444Z,17.97
2017-12-06T10:36:38.058Z,16.60
2017-12-06T10:39:43.197Z,17.50
2017-12-06T10:42:48.268Z,15.43
2017-12-06T10:45:54.420Z,15.27
2017-12-06T10:49:00.937Z,18.37
2017-12-06T10:52:06.411Z,18.67
2017-12-06T10:55:12.108Z,17.97
2017-12-06T10:58:17.615Z,17.50
2017-12-06T11:01:22.771Z,16.67
2017-12-06T11:04:28.056Z,17.50
2017-12-06T11:07:42.464Z,14.77
2017-12-06T11:10:51.301Z,17.60
2017-12-06T11:13:57.696Z,18.00
2017-12-06T11:17:02.572Z,17.30
2017-12-06T11:20:08.020Z,16.27
2017-12-06T11:23:13.119Z,17.40
2017-12-06T11:26:18.391Z,16.07
2017-12-06T11:29:24.761Z,17.30
2017-12-06T11:32:31.011Z,18.07
2017-12-06T11:35:36.183Z,17.90
2017-12-06T11:38:41.253Z,15.70
2017-12-06T11:41:46.929Z,17.10
2017-12-06T11:44:52.010Z,16.17
2017-12-06T11:47:57.056Z,17.40
2017-12-06T11:51:03.705Z,16.20
2017-12-06T11:54:10.828Z,17.87
2017-12-06T11:57:16.584Z,16.53
2017-12-06T12:00:22.204Z,17.20
2017-12-06T12:03:27.183Z,16.80
2017-12-06T12:06:32.800Z,17.53
2017-12-06T12:09:38.437Z,15.97
2017-12-06T12:12:44.097Z,17.30
2017-12-06T12:15:50.197Z,16.37
2017-12-06T12:18:55.462Z,15.70
2017-12-06T12:22:03.664Z,17.13
2017-12-06T12:25:09.686Z,17.63
2017-12-06T12:28:15.328Z,17.07
2017-12-06T12:31:20.740Z,18.43
2017-12-06T12:34:26.888Z,17.07
2017-12-06T12:37:35.631Z,16.63
2017-12-06T12:40:43.151Z,16.60
2017-12-06T12:43:48.958Z,16.23
2017-12-06T12:46:55.376Z,16.27
2017-12-06T12:50:03.413Z,15.77
2017-12-06T12:53:08.175Z,15.80
2017-12-06T12:56:14.344Z,16.63
2017-12-06T12:59:20.421Z,16.13
2017-12-06T13:02:25.959Z,16.53
2017-12-06T13:05:34.264Z,15.97
2017-12-06T13:08:39.673Z,14.43
2017-12-06T13:11:52.651Z,13.47
2017-12-06T13:15:01.475Z,17.37
2017-12-06T13:18:06.387Z,15.10
2017-12-06T13:21:14.887Z,16.33
2017-12-06T13:24:20.771Z,15.80
2017-12-06T13:27:32.218Z,17.80
2017-12-06T13:30:38.263Z,17.60
2017-12-06T13:33:45.852Z,15.60
2017-12-06T13:36:52.548Z,16.87
2017-12-06T13:39:59.130Z,16.93
2017-12-06T13:43:05.775Z,17.07
2017-12-06T13:46:10.916Z,16.83
2017-12-06T13:49:15.937Z,16.90
2017-12-06T13:52:21.437Z,16.87
2017-12-06T13:55:26.757Z,16.60
2017-12-06T13:58:31.835Z,17.23
2017-12-06T14:01:36.841Z,16.47
2017-12-06T14:04:44.121Z,17.17
2017-12-06T14:07:50.842Z,16.90
2017-12-06T14:10:55.928Z,18.80
2017-12-06T14:14:02.530Z,16.73
2017-12-06T14:17:08.165Z,17.17
2017-12-06T14:20:15.024Z,16.30
2017-12-06T14:23:20.368Z,16.27
2017-12-06T14:26:25.705Z,17.40
2017-12-06T14:29:31.880Z,17.70
2017-12-06T14:32:38.716Z,14.90
2017-12-06T14:35:43.936Z,18.30
2017-12-06T14:38:49.328Z,16.73
2017-12-06T14:41:55.044Z,15.17
2017-12-06T14:45:00.351Z,16.93
2017-12-06T14:48:06.928Z,15.50
2017-12-06T14:51:12.484Z,16.60
2017-12-06T14:54:18.334Z,17.17
2017-12-06T14:57:23.994Z,17.10
2017-12-06T15:00:29.503Z,17.03
2017-12-06T15:03:34.527Z,16.70
2017-12-06T15:06:40.828Z,18.10
2017-12-06T15:09:46.262Z,17.87
2017-12-06T15:12:51.980Z,19.20
2017-12-06T15:15:57.056Z,17.57
2017-12-06T15:19:01.854Z,15.87
2017-12-06T15:22:07.350Z,18.17
2017-12-06T15:25:13.015Z,18.27
2017-12-06T15:28:18.456Z,19.20
2017-12-06T15:31:23.997Z,17.73
2017-12-06T15:34:30.106Z,18.90
2017-12-06T15:37:35.444Z,20.00
2017-12-06T15:40:41.182Z,18.10
2017-12-06T15:43:47.028Z,17.40
2017-12-06T15:46:51.997Z,19.53
2017-12-06T15:49:56.851Z,18.27
2017-12-06T15:53:02.964Z,19.50
2017-12-06T15:56:08.477Z,17.77
2017-12-06T15:59:14.259Z,16.90
2017-12-06T16:02:19.088Z,18.70
2017-12-06T16:05:24.086Z,17.47
2017-12-06T16:08:30.207Z,17.93
2017-12-06T16:11:35.773Z,17.70
2017-12-06T16:14:41.351Z,19.23
2017-12-06T16:17:46.926Z,19.13
2017-12-06T16:20:52.776Z,19.43
2017-12-06T16:23:58.148Z,18.10
2017-12-06T16:27:03.880Z,19.10
2017-12-06T16:30:09.420Z,17.33
2017-12-06T16:33:14.772Z,17.67
2017-12-06T16:36:31.631Z,17.93
2017-12-06T16:39:37.040Z,17.80
2017-12-06T16:42:42.414Z,19.63
2017-12-06T16:45:47.535Z,18.27
2017-12-06T16:48:53.222Z,17.70
2017-12-06T16:51:58.384Z,17.17
2017-12-06T16:55:03.901Z,17.67
2017-12-06T16:58:09.086Z,18.60
2017-12-06T17:01:15.242Z,17.77
2017-12-06T17:04:20.936Z,17.50
2017-12-06T17:07:27.144Z,18.80
2017-12-06T17:10:32.585Z,19.03
2017-12-06T17:13:37.499Z,18.90
2017-12-06T17:16:43.180Z,25.33
2017-12-06T17:19:49.408Z,19.80
2017-12-06T17:22:55.644Z,19.23
2017-12-06T17:26:01.516Z,21.63
2017-12-06T17:29:19.761Z,20.47
2017-12-06T17:32:26.199Z,21.20
2017-12-06T17:35:31.539Z,21.23
2017-12-06T17:38:37.331Z,20.53
2017-12-06T17:41:42.315Z,20.23
2017-12-06T17:44:49.596Z,19.47
2017-12-06T17:47:55.248Z,20.23
2017-12-06T17:51:00.815Z,20.83
2017-12-06T17:54:06.011Z,20.40
2017-12-06T17:57:11.409Z,21.67
2017-12-06T18:00:16.573Z,20.70
2017-12-06T18:03:21.427Z,21.30
2017-12-06T18:06:27.967Z,21.33
2017-12-06T18:09:32.943Z,20.30
2017-12-06T18:12:38.438Z,20.83
2017-12-06T18:15:43.333Z,20.67
2017-12-06T18:18:48.746Z,21.30
2017-12-06T18:21:53.788Z,20.43
2017-12-06T18:24:59.565Z,20.40
2017-12-06T18:28:04.756Z,18.67
2017-12-06T18:31:10.400Z,21.20
2017-12-06T18:34:15.586Z,21.90
2017-12-06T18:37:20.668Z,19.93
2017-12-06T18:40:25.972Z,20.27
2017-12-06T18:43:47.153Z,23.23
2017-12-06T18:46:59.176Z,20.80
2017-12-06T18:50:04.116Z,20.40
2017-12-06T18:53:10.024Z,20.67
2017-12-06T18:56:20.284Z,20.67
2017-12-06T18:59:29.359Z,21.67
2017-12-06T19:02:35.240Z,20.43
2017-12-06T19:05:40.308Z,19.50
2017-12-06T19:09:07.122Z,20.30
2017-12-06T19:12:12.427Z,20.40
2017-12-06T19:15:17.145Z,19.90
2017-12-06T19:18:22.645Z,21.73
2017-12-06T19:21:27.835Z,18.37
2017-12-06T19:24:34.327Z,20.63
2017-12-06T19:27:40.037Z,21.57
2017-12-06T19:30:45.504Z,22.87
2017-12-06T19:33:50.840Z,21.87
2017-12-06T19:36:56.114Z,19.67
2017-12-06T19:40:02.705Z,19.17
2017-12-06T19:43:09.181Z,18.63
2017-12-06T19:46:14.643Z,18.50
2017-12-06T19:49:20.417Z,18.70
2017-12-06T19:52:25.667Z,18.30
2017-12-06T19:55:32.100Z,18.77
2017-12-06T19:58:37.230Z,17.80
2017-12-06T20:01:42.959Z,19.07
2017-12-06T20:04:47.777Z,18.93
2017-12-06T20:07:55.224Z,18.37
2017-12-06T20:11:00.909Z,18.50
2017-12-06T20:14:06.302Z,19.23
2017-12-06T20:17:11.885Z,18.93
2017-12-06T20:20:16.722Z,19.57
2017-12-06T20:23:22.131Z,17.17
2017-12-06T20:26:27.472Z,17.77
2017-12-06T20:29:32.637Z,18.67
2017-12-06T20:32:41.239Z,19.00
2017-12-06T20:35:46.448Z,18.13
2017-12-06T20:38:51.757Z,17.90
2017-12-06T20:41:58.124Z,18.67
2017-12-06T20:45:03.928Z,18.13
2017-12-06T20:48:08.768Z,18.90
2017-12-06T20:51:16.702Z,17.80
2017-12-06T20:54:22.864Z,18.63
2017-12-06T20:57:28.735Z,18.17
2017-12-06T21:00:33.632Z,18.97
2017-12-06T21:03:38.480Z,17.30
2017-12-06T21:06:43.901Z,18.77
2017-12-06T21:09:50.324Z,18.00
2017-12-06T21:12:57.840Z,17.00
2017-12-06T21:16:08.160Z,18.47
2017-12-06T21:19:14.790Z,17.70
2017-12-06T21:22:26.063Z,17.37
2017-12-06T21:25:31.819Z,17.00
2017-12-06T21:28:37.373Z,17.57
2017-12-06T21:31:42.220Z,17.70
2017-12-06T21:34:48.741Z,17.40
2017-12-06T21:37:54.224Z,18.00
2017-12-06T21:40:59.688Z,17.70
2017-12-06T21:44:05.173Z,16.50
2017-12-06T21:47:10.111Z,17.77
2017-12-06T21:50:15.331Z,17.57
2017-12-06T21:53:21.068Z,18.37
2017-12-06T21:56:26.580Z,18.80
2017-12-06T21:59:33.198Z,18.40
2017-12-06T22:02:37.938Z,17.93
2017-12-06T22:05:43.122Z,19.30
2017-12-06T22:08:49.013Z,17.50
2017-12-06T22:11:53.792Z,18.60
2017-12-06T22:14:58.708Z,16.73
2017-12-06T22:18:03.828Z,17.80
2017-12-06T22:21:09.680Z,19.50
2017-12-06T22:24:15.146Z,19.77
2017-12-06T22:27:21.068Z,16.70
2017-12-06T22:30:25.859Z,19.10
2017-12-06T22:33:31.332Z,19.83
2017-12-06T22:36:36.323Z,18.37
2017-12-06T22:39:41.404Z,19.00
2017-12-06T22:42:46.980Z,19.93
2017-12-06T22:45:53.308Z,18.17
2017-12-06T22:48:58.344Z,19.47
2017-12-06T22:52:04.108Z,20.30
2017-12-06T22:55:09.761Z,18.33
2017-12-06T22:58:15.346Z,19.63
2017-12-06T23:01:20.246Z,19.83
2017-12-06T23:04:25.896Z,18.77
2017-12-06T23:07:31.429Z,18.40
2017-12-06T23:10:37.988Z,18.50
2017-12-06T23:13:43.287Z,20.50
2017-12-06T23:16:49.849Z,21.67
2017-12-06T23:19:55.078Z,20.80
2017-12-06T23:23:00.972Z,22.90
2017-12-06T23:26:06.652Z,20.93
2017-12-06T23:29:12.232Z,20.57
2017-12-06T23:32:17.386Z,20.60
2017-12-06T23:35:22.702Z,19.87
2017-12-06T23:38:28.512Z,19.97
2017-12-06T23:41:33.428Z,21.60
2017-12-06T23:44:39.512Z,20.60
2017-12-06T23:47:44.386Z,22.73
2017-12-06T23:50:49.478Z,20.53
2017-12-06T23:53:55.160Z,22.87
2017-12-06T23:57:00.549Z,23.43
